Terminal Aerodrome Forecast
Issued by NWS

Home | Current Version | Previous Version | Text Only | Print | Product List | Glossary On
Versions: 1 2 3 4 5 6 7 8 9 10 11 12 13 14 15 16 17 18 19 20 21 22 23 24
728
FTAK31 PAJN 022334
TAFAYA
TAF
PAYA 022334Z 0300/0324 VRB05KT P6SM VCSH BKN050 OVC080
     FM030500 VRB03KT 6SM -SHRA BKN035 OVC050
     FM031500 11007KT 3SM -SHRASN BKN025 OVC050
      AMD LTD TO CLD VIS AND WIND 0301/0309=

USA.gov is the U.S. government's official web portal to all federal, state and local government web resources and services.